Terminal Aerodrome Forecast
Issued by NWS Portland, ME

Home | Current Version | Previous Version | Text Only | Print | Product List | Glossary On
Versions: 1 2 3 4 5 6 7 8 9 10 11 12 13 14 15 16 17 18 19 20 21 22 23 24 25 26 27 28 29
182
FTUS41 KGYX 231120
TAFPWM
TAF
KPWM 231120Z 2312/2412 05010G22KT P6SM OVC020
     FM232200 04015G25KT P6SM OVC015 PROB30 2404/2407 1 1/2SM -SNPL
      OVC015
     FM240700 03020G32KT 1SM -SNPL BR OVC007=

USA.gov is the U.S. government's official web portal to all federal, state and local government web resources and services.